Time;durP1;ratioP1;P1;durP2;ratioP2;P2;SDS_P1;SDS_P2;PMS_P1;PMS_P2;Temp;Humidity;BMP_temperature;BMP_pressure;BME280_temperature;BME280_humidity;BME280_pressure;Samples;Min_cycle;Max_cycle;Signal;HPM_P1;HPM_P2
2021/11/01 00:00:21;;;;;;;1.10;0.90;;;15.10;98.10;;;;;;5033480;28;20444;-60
2021/11/01 00:02:50;;;;;;;2.43;1.63;;;15.00;98.00;;;;;;5033428;28;20448;-61
2021/11/01 00:05:20;;;;;;;2.50;1.20;;;15.00;98.00;;;;;;5033536;28;20449;-59
2021/11/01 00:07:47;;;;;;;0.80;0.73;;;15.00;98.10;;;;;;5033556;28;20484;-60
2021/11/01 00:10:14;;;;;;;2.00;1.20;;;15.00;98.10;;;;;;5033099;28;20441;-60
2021/11/01 00:12:43;;;;;;;1.87;1.30;;;15.00;98.20;;;;;;5034513;28;20444;-60
2021/11/01 00:15:11;;;;;;;1.17;1.07;;;14.90;98.20;;;;;;5034404;28;20515;-60
2021/11/01 00:17:38;;;;;;;1.13;1.00;;;14.90;98.20;;;;;;5033987;28;20456;-60
2021/11/01 00:20:09;;;;;;;1.53;1.07;;;14.90;98.20;;;;;;5033357;28;20449;-60
2021/11/01 00:22:38;;;;;;;1.60;1.07;;;14.90;98.20;;;;;;5033134;28;20440;-60
2021/11/01 00:25:08;;;;;;;1.97;0.97;;;14.90;98.10;;;;;;5036383;28;20472;-60
2021/11/01 00:27:36;;;;;;;1.70;0.90;;;14.80;97.90;;;;;;5037589;28;20482;-60
2021/11/01 00:30:06;;;;;;;1.60;1.17;;;14.80;97.70;;;;;;5037321;28;20472;-59
2021/11/01 00:32:33;;;;;;;1.00;0.90;;;14.80;97.70;;;;;;5037373;28;20445;-60
2021/11/01 00:35:00;;;;;;;1.97;0.93;;;14.80;97.50;;;;;;5036627;28;20493;-60
2021/11/01 00:37:29;;;;;;;2.13;0.80;;;14.80;97.40;;;;;;5036771;28;20449;-60
2021/11/01 00:39:58;;;;;;;1.20;0.70;;;14.70;97.30;;;;;;5037005;28;20436;-60
2021/11/01 00:42:25;;;;;;;1.37;0.80;;;14.70;97.20;;;;;;5036659;28;20828;-60
2021/11/01 00:44:53;;;;;;;0.80;0.70;;;14.70;97.20;;;;;;5036554;28;20492;-60
2021/11/01 00:47:20;;;;;;;1.30;1.00;;;14.70;97.20;;;;;;5037010;28;20453;-60
2021/11/01 00:49:47;;;;;;;0.83;0.80;;;14.60;97.10;;;;;;5036895;28;20452;-60
2021/11/01 00:52:19;;;;;;;1.87;0.80;;;14.60;97.10;;;;;;5036786;28;20452;-60
2021/11/01 00:54:48;;;;;;;2.07;0.90;;;14.60;97.20;;;;;;5036645;28;20485;-60
2021/11/01 00:57:15;;;;;;;1.37;0.80;;;14.60;97.20;;;;;;5036332;28;20456;-60
2021/11/01 00:59:42;;;;;;;1.23;0.80;;;14.50;97.10;;;;;;5036564;28;20436;-60
2021/11/01 01:02:11;;;;;;;1.67;1.10;;;14.50;97.20;;;;;;5036620;28;20490;-59
2021/11/01 01:04:38;;;;;;;1.43;0.60;;;14.50;97.20;;;;;;5036505;28;20469;-60
2021/11/01 01:07:06;;;;;;;0.90;0.67;;;14.50;97.30;;;;;;5036511;28;20955;-59
2021/11/01 01:09:33;;;;;;;1.80;0.80;;;14.40;97.30;;;;;;5037168;28;20956;-59
2021/11/01 01:12:02;;;;;;;3.93;1.40;;;14.40;97.20;;;;;;5036803;28;20457;-60
2021/11/01 01:14:31;;;;;;;3.60;1.17;;;14.30;97.00;;;;;;5036393;28;20516;-59
2021/11/01 01:17:00;;;;;;;5.30;1.37;;;14.30;96.90;;;;;;5036402;28;20945;-60
2021/11/01 01:19:34;;;;;;;4.07;1.17;;;14.30;96.70;;;;;;5036149;28;20536;-60
2021/11/01 01:22:21;;;;;;;3.20;0.90;;;14.30;96.50;;;;;;5036301;28;20469;-60
2021/11/01 01:24:48;;;;;;;4.70;1.27;;;14.30;96.30;;;;;;5036230;28;20472;-60
2021/11/01 01:27:17;;;;;;;9.20;3.00;;;14.20;96.10;;;;;;5036065;28;20480;-60
2021/11/01 01:29:44;;;;;;;3.27;1.20;;;14.20;96.10;;;;;;5036052;28;20452;-61
2021/11/01 01:32:11;;;;;;;1.70;0.93;;;14.20;96.10;;;;;;5036095;28;20827;-60
2021/11/01 01:34:38;;;;;;;5.03;1.40;;;14.10;96.10;;;;;;5036095;28;20476;-60
2021/11/01 01:37:05;;;;;;;2.77;1.10;;;14.10;96.10;;;;;;5035284;28;20456;-60
2021/11/01 01:39:33;;;;;;;2.80;1.30;;;14.10;96.00;;;;;;5035988;28;20445;-60
2021/11/01 01:42:00;;;;;;;3.83;1.63;;;14.00;95.80;;;;;;5035621;28;20449;-60
2021/11/01 01:44:28;;;;;;;4.50;1.10;;;14.00;95.90;;;;;;5035471;28;20472;-60
2021/11/01 01:46:56;;;;;;;4.50;1.53;;;14.00;95.90;;;;;;5035882;28;20449;-60
2021/11/01 01:49:23;;;;;;;4.33;1.30;;;13.90;95.80;;;;;;5035610;28;20506;-60
2021/11/01 01:51:50;;;;;;;4.70;1.47;;;13.90;95.80;;;;;;5035682;28;20441;-60
2021/11/01 01:54:17;;;;;;;3.60;1.27;;;13.90;95.80;;;;;;5035163;28;20851;-59
2021/11/01 01:56:44;;;;;;;4.23;1.60;;;13.90;95.90;;;;;;5035402;28;20945;-60
2021/11/01 01:59:17;;;;;;;4.10;1.50;;;13.80;95.90;;;;;;5035403;28;20453;-60
2021/11/01 02:01:46;;;;;;;4.43;1.77;;;13.80;96.00;;;;;;5035117;28;20452;-60
2021/11/01 02:04:16;;;;;;;4.30;1.57;;;13.80;96.00;;;;;;5035141;28;20523;-60
2021/11/01 02:06:55;;;;;;;5.43;1.60;;;13.80;96.10;;;;;;5035611;28;20464;-59
2021/11/01 02:09:26;;;;;;;9.03;1.67;;;13.70;96.00;;;;;;5037109;28;20533;-60
2021/11/01 02:12:00;;;;;;;7.50;2.03;;;13.70;96.10;;;;;;5036923;28;20440;-60
2021/11/01 02:14:33;;;;;;;6.63;2.00;;;13.60;96.10;;;;;;5035738;28;20511;-60
2021/11/01 02:17:02;;;;;;;4.67;2.00;;;13.60;96.10;;;;;;5035235;28;20429;-60
2021/11/01 02:19:34;;;;;;;5.03;2.37;;;13.60;96.10;;;;;;5035493;28;20937;-60
2021/11/01 02:22:07;;;;;;;4.20;1.50;;;13.60;96.10;;;;;;5035219;28;20460;-59
2021/11/01 02:24:47;;;;;;;7.80;1.57;;;13.60;96.20;;;;;;5034631;28;21039;-59
2021/11/01 02:27:16;;;;;;;6.60;2.33;;;13.50;96.30;;;;;;5035080;28;20499;-59
2021/11/01 02:29:46;;;;;;;9.40;2.30;;;13.50;96.40;;;;;;5034640;28;20449;-59
2021/11/01 02:32:13;;;;;;;8.90;2.20;;;13.40;96.40;;;;;;5034705;28;20455;-59
2021/11/01 02:34:42;;;;;;;11.70;2.37;;;13.40;96.50;;;;;;5034820;28;20495;-59
2021/11/01 02:37:10;;;;;;;10.03;2.30;;;13.40;96.50;;;;;;5035027;28;20449;-60
2021/11/01 02:39:47;;;;;;;7.10;2.17;;;13.30;96.40;;;;;;5035007;28;20453;-60
2021/11/01 02:42:16;;;;;;;8.90;1.57;;;13.30;96.50;;;;;;5035114;28;20429;-60
2021/11/01 02:44:59;;;;;;;7.60;2.30;;;13.20;96.60;;;;;;5034798;28;20555;-60
2021/11/01 02:47:27;;;;;;;10.10;2.20;;;13.20;96.70;;;;;;5033417;28;20979;-60
2021/11/01 02:49:55;;;;;;;6.53;1.67;;;13.20;96.80;;;;;;5034480;28;20457;-60
2021/11/01 02:52:22;;;;;;;8.00;2.30;;;13.20;96.80;;;;;;5034866;28;20441;-59
2021/11/01 02:54:50;;;;;;;14.43;2.30;;;13.10;96.80;;;;;;5034421;28;20487;-60
2021/11/01 02:57:18;;;;;;;9.73;2.50;;;13.20;96.80;;;;;;5034586;28;20453;-59
2021/11/01 02:59:45;;;;;;;6.97;2.40;;;13.10;96.70;;;;;;5034486;28;20449;-60
2021/11/01 03:02:13;;;;;;;7.80;3.20;;;13.10;96.70;;;;;;5034704;28;20452;-59
2021/11/01 03:04:40;;;;;;;7.73;2.10;;;13.00;96.80;;;;;;5034085;28;20873;-60
2021/11/01 03:07:08;;;;;;;7.40;2.33;;;12.90;96.90;;;;;;5034431;28;20452;-59
2021/11/01 03:09:39;;;;;;;10.17;2.87;;;12.80;97.10;;;;;;5034036;28;20444;-59
2021/11/01 03:12:10;;;;;;;9.67;2.50;;;12.70;97.40;;;;;;5034084;28;20429;-59
2021/11/01 03:14:55;;;;;;;12.20;2.70;;;12.60;97.60;;;;;;5034155;28;20488;-60
2021/11/01 03:17:25;;;;;;;11.00;2.53;;;12.50;97.90;;;;;;5032756;28;20464;-59
2021/11/01 03:19:59;;;;;;;11.60;2.70;;;12.40;98.10;;;;;;5034380;28;20456;-60
2021/11/01 03:22:29;;;;;;;14.77;2.63;;;12.40;98.30;;;;;;5034764;28;20928;-59
2021/11/01 03:25:02;;;;;;;9.07;2.60;;;12.40;98.50;;;;;;5033689;28;20475;-59
2021/11/01 03:27:32;;;;;;;10.67;2.60;;;12.40;98.60;;;;;;5033775;28;20429;-60
2021/11/01 03:30:02;;;;;;;6.63;2.60;;;12.40;98.70;;;;;;5034074;28;20459;-59
2021/11/01 03:32:30;;;;;;;8.20;2.23;;;12.50;98.70;;;;;;5034019;28;20480;-59
2021/11/01 03:34:58;;;;;;;9.37;2.83;;;12.40;98.70;;;;;;5033914;28;20484;-59
2021/11/01 03:37:26;;;;;;;5.20;2.80;;;12.50;98.80;;;;;;5034156;28;20448;-60
2021/11/01 03:39:54;;;;;;;8.77;2.63;;;12.50;98.80;;;;;;5033918;28;20441;-59
2021/11/01 03:42:21;;;;;;;14.30;4.60;;;12.50;98.80;;;;;;5033943;28;20445;-60
2021/11/01 03:44:58;;;;;;;9.23;2.70;;;12.50;98.90;;;;;;5033880;28;20469;-59
2021/11/01 03:47:30;;;;;;;7.47;2.60;;;12.40;98.90;;;;;;5033626;28;20444;-59
2021/11/01 03:50:01;;;;;;;8.40;2.90;;;12.40;98.90;;;;;;5033630;28;20433;-60
2021/11/01 03:52:32;;;;;;;12.60;2.97;;;12.50;98.90;;;;;;5033939;28;20996;-59
2021/11/01 03:54:59;;;;;;;7.83;2.77;;;12.50;98.90;;;;;;5033990;28;20488;-59
2021/11/01 03:57:27;;;;;;;7.80;2.60;;;12.50;99.00;;;;;;5033550;28;20945;-59
2021/11/01 03:59:56;;;;;;;5.13;2.40;;;12.50;99.00;;;;;;5033055;28;20495;-59
2021/11/01 04:02:23;;;;;;;9.63;2.73;;;12.50;99.00;;;;;;5033851;28;20452;-59
2021/11/01 04:04:53;;;;;;;10.27;3.00;;;12.40;98.90;;;;;;5033836;28;20894;-59
2021/11/01 04:08:50;;;;;;;8.60;3.40;;;12.40;98.80;;;;;;5091482;27;20603;-60
2021/11/01 04:11:18;;;;;;;9.67;3.00;;;12.40;98.90;;;;;;5092212;28;20442;-58
2021/11/01 04:13:45;;;;;;;7.13;2.60;;;12.40;98.80;;;;;;5094199;28;20469;-60
2021/11/01 04:16:14;;;;;;;7.70;2.83;;;12.40;98.80;;;;;;5092796;28;20942;-59
2021/11/01 04:18:53;;;;;;;5.53;2.30;;;12.40;98.80;;;;;;5091036;28;20469;-60
2021/11/01 04:21:20;;;;;;;8.20;3.17;;;12.40;98.80;;;;;;5079859;22;20487;-57
2021/11/01 04:23:48;;;;;;;3.67;2.33;;;12.40;98.90;;;;;;5050551;28;20452;-57
2021/11/01 04:26:18;;;;;;;7.97;2.50;;;12.40;98.90;;;;;;5050112;28;20459;-57
2021/11/01 04:28:45;;;;;;;9.17;2.50;;;12.40;99.00;;;;;;5050832;28;20460;-56
2021/11/01 04:31:17;;;;;;;7.60;3.00;;;12.40;99.00;;;;;;5050219;28;20503;-56
2021/11/01 04:33:44;;;;;;;7.93;2.83;;;12.40;99.00;;;;;;5050094;28;20429;-56
2021/11/01 04:36:11;;;;;;;7.80;2.30;;;12.40;99.10;;;;;;5050307;28;20547;-56
2021/11/01 04:38:47;;;;;;;8.00;2.20;;;12.40;99.10;;;;;;5049773;28;20448;-56
2021/11/01 04:41:21;;;;;;;9.83;2.57;;;12.40;99.10;;;;;;5049707;28;20956;-56
2021/11/01 04:54:51;;;;;;;10.00;2.53;;;12.30;99.10;;;;;;5049753;28;20842;-56
2021/11/01 04:57:21;;;;;;;7.30;2.60;;;12.20;99.10;;;;;;5050218;28;20455;-57
2021/11/01 04:59:49;;;;;;;9.90;2.70;;;12.20;99.10;;;;;;5049962;28;20475;-56
2021/11/01 05:02:17;;;;;;;6.80;2.40;;;12.30;99.10;;;;;;5050417;28;20917;-56
2021/11/01 05:04:45;;;;;;;9.13;2.30;;;12.20;99.10;;;;;;5049606;28;20456;-56
2021/11/01 05:07:12;;;;;;;6.90;2.40;;;12.20;99.10;;;;;;5049344;28;20511;-56
2021/11/01 05:09:44;;;;;;;9.83;2.53;;;12.20;99.10;;;;;;5049444;28;20464;-56
2021/11/01 05:12:27;;;;;;;6.23;2.53;;;12.20;99.10;;;;;;5049811;28;20452;-56
2021/11/01 05:15:08;;;;;;;8.40;2.53;;;12.10;99.10;;;;;;5049581;28;20429;-56
2021/11/01 05:17:47;;;;;;;6.57;2.30;;;12.20;99.10;;;;;;5050049;28;20429;-56
2021/11/01 05:20:19;;;;;;;7.63;2.37;;;12.20;99.00;;;;;;5035474;28;20507;-56
2021/11/01 05:22:50;;;;;;;4.73;2.30;;;12.10;98.90;;;;;;5036076;28;20433;-57
2021/11/01 05:25:20;;;;;;;5.97;2.20;;;12.10;99.00;;;;;;5036084;28;20499;-56
2021/11/01 05:27:56;;;;;;;10.93;2.70;;;12.10;98.90;;;;;;5035715;28;20473;-56
2021/11/01 05:30:29;;;;;;;13.60;2.63;;;12.10;98.90;;;;;;5035567;28;20550;-56
2021/11/01 05:33:02;;;;;;;11.07;2.83;;;12.10;98.80;;;;;;5035585;28;20441;-56
2021/11/01 05:35:29;;;;;;;9.90;5.07;;;12.10;98.80;;;;;;5035741;28;20440;-56
2021/11/01 05:37:56;;;;;;;8.33;2.70;;;12.10;98.70;;;;;;5035514;28;20441;-56
2021/11/01 05:40:24;;;;;;;10.33;3.43;;;12.10;98.60;;;;;;5035610;28;20851;-56
2021/11/01 05:42:51;;;;;;;10.33;3.13;;;12.00;98.60;;;;;;5035266;28;20960;-56
2021/11/01 05:45:18;;;;;;;6.03;1.80;;;12.10;98.60;;;;;;5035725;28;20449;-56
2021/11/01 05:47:52;;;;;;;9.07;2.97;;;12.00;98.50;;;;;;5035184;28;21035;-56
2021/11/01 05:50:19;;;;;;;5.60;2.67;;;12.10;98.60;;;;;;5035598;28;20473;-56
2021/11/01 05:52:46;;;;;;;7.20;1.80;;;12.00;98.50;;;;;;5035323;28;20956;-56
2021/11/01 05:55:23;;;;;;;8.67;3.60;;;12.00;98.50;;;;;;5035760;28;20445;-58
2021/11/01 05:58:04;;;;;;;8.20;2.30;;;12.00;98.60;;;;;;5035094;28;20460;-55
2021/11/01 06:00:47;;;;;;;7.00;2.23;;;12.00;98.60;;;;;;5034891;28;20504;-56
2021/11/01 06:03:17;;;;;;;7.90;2.43;;;12.10;98.60;;;;;;5034989;28;20531;-55
2021/11/01 06:06:04;;;;;;;8.80;2.40;;;12.10;98.50;;;;;;5035127;28;20855;-56
2021/11/01 06:08:46;;;;;;;6.90;2.53;;;12.00;98.30;;;;;;5034703;28;20479;-56
2021/11/01 06:13:59;;;;;;;6.27;2.80;;;12.00;98.10;;;;;;5035075;28;20460;-56
2021/11/01 06:16:27;;;;;;;12.17;2.50;;;12.10;98.10;;;;;;5034896;28;20460;-57
2021/11/01 06:18:55;;;;;;;11.30;2.73;;;12.00;97.90;;;;;;5034896;28;20445;-57
2021/11/01 06:21:23;;;;;;;6.77;2.43;;;12.00;97.90;;;;;;5034237;28;21000;-57
2021/11/01 06:23:53;;;;;;;6.93;2.13;;;12.00;97.90;;;;;;5034705;28;20481;-55
2021/11/01 06:26:22;;;;;;;7.80;3.37;;;12.00;97.80;;;;;;5034554;28;20448;-56
2021/11/01 06:28:56;;;;;;;6.03;2.50;;;12.00;97.80;;;;;;5034662;28;20480;-56
2021/11/01 06:31:27;;;;;;;9.30;3.07;;;12.00;97.70;;;;;;5033463;28;20473;-56
2021/11/01 06:34:16;;;;;;;6.50;2.70;;;12.00;97.70;;;;;;5034454;28;20440;-56
2021/11/01 06:42:19;;;;;;;8.07;2.40;;;11.90;97.80;;;;;;5033004;28;20921;-56
2021/11/01 06:44:55;;;;;;;9.10;2.50;;;11.90;97.80;;;;;;5034228;28;20435;-56
2021/11/01 06:50:14;;;;;;;10.43;2.83;;;11.90;98.00;;;;;;5034231;28;20523;-57
2021/11/01 06:53:09;;;;;;;7.33;2.00;;;11.90;97.90;;;;;;5033808;28;20927;-56
2021/11/01 06:58:32;;;;;;;7.80;2.30;;;11.90;97.70;;;;;;5024566;28;20482;-56
2021/11/01 07:14:55;;;;;;;7.67;2.00;;;12.10;97.40;;;;;;5033382;28;20455;-57
2021/11/01 07:17:34;;;;;;;5.10;1.93;;;12.10;97.30;;;;;;5033681;28;20850;-56
2021/11/01 07:20:27;;;;;;;10.17;2.40;;;12.10;97.10;;;;;;5033346;28;20534;-56
2021/11/01 07:23:12;;;;;;;6.13;1.80;;;12.10;96.90;;;;;;5033992;28;20452;-56
2021/11/01 08:21:06;;;;;;;4.30;1.77;;;12.90;93.70;;;;;;5033022;28;20991;-56
2021/11/01 08:24:00;;;;;;;10.27;2.30;;;13.00;93.50;;;;;;5033514;28;20432;-56
2021/11/01 08:40:23;;;;;;;9.53;2.20;;;13.30;92.40;;;;;;5032658;28;20441;-56
2021/11/01 08:43:07;;;;;;;11.43;4.30;;;13.30;92.30;;;;;;5033175;28;20468;-55
2021/11/01 08:48:50;;;;;;;7.13;2.40;;;13.40;92.30;;;;;;5032969;28;20499;-56
2021/11/01 09:02:44;;;;;;;9.63;2.27;;;13.50;92.10;;;;;;5014474;28;20409;-56
2021/11/01 09:22:19;;;;;;;7.47;2.70;;;13.60;91.90;;;;;;5031295;28;20436;-56
2021/11/01 09:24:49;;;;;;;6.93;2.03;;;13.70;91.70;;;;;;5036492;28;20788;-57
2021/11/01 09:27:19;;;;;;;7.67;2.13;;;13.80;91.50;;;;;;5036108;28;20461;-57
2021/11/01 09:30:06;;;;;;;3.53;1.93;;;13.80;91.40;;;;;;5035635;28;20488;-57
2021/11/01 09:43:36;;;;;;;3.10;1.40;;;13.90;90.50;;;;;;5035333;28;20470;-55
2021/11/01 09:46:09;;;;;;;6.83;2.17;;;14.00;90.10;;;;;;5035180;28;20547;-56
2021/11/01 09:48:36;;;;;;;2.70;1.53;;;14.00;89.50;;;;;;5035205;28;20556;-56
2021/11/01 09:51:06;;;;;;;4.77;1.70;;;14.10;89.10;;;;;;5035096;28;20535;-56
2021/11/01 09:53:39;;;;;;;4.43;1.40;;;14.20;89.20;;;;;;5035264;28;20449;-56
2021/11/01 09:56:18;;;;;;;8.20;1.90;;;14.30;88.00;;;;;;5034980;28;20429;-56
2021/11/01 10:01:31;;;;;;;5.43;1.53;;;14.40;86.70;;;;;;5034989;28;20439;-56
2021/11/01 10:03:59;;;;;;;3.90;1.33;;;14.40;85.90;;;;;;5035382;28;20476;-55
2021/11/01 10:06:29;;;;;;;5.90;2.40;;;14.40;85.80;;;;;;5035000;28;20440;-56
2021/11/01 10:08:58;;;;;;;3.73;1.70;;;14.40;85.60;;;;;;5034804;28;20548;-56
2021/11/01 10:11:27;;;;;;;5.63;2.00;;;14.30;85.60;;;;;;5034907;28;20804;-56
2021/11/01 10:13:55;;;;;;;9.33;1.70;;;14.40;85.70;;;;;;5034835;28;20975;-56
2021/11/01 10:19:29;;;;;;;6.40;1.30;;;14.50;85.10;;;;;;5035579;28;20405;-56
2021/11/01 10:22:01;;;;;;;4.07;1.37;;;14.50;84.50;;;;;;5059526;22;20500;-60
2021/11/01 10:24:35;;;;;;;2.70;1.40;;;14.60;84.50;;;;;;5034854;28;20468;-59
2021/11/01 10:27:06;;;;;;;3.23;1.23;;;14.70;84.40;;;;;;5034596;28;20439;-59
2021/11/01 10:29:34;;;;;;;3.27;0.97;;;14.80;84.10;;;;;;5035122;28;20547;-60
2021/11/01 10:32:02;;;;;;;4.50;1.80;;;14.80;83.60;;;;;;5034324;28;20527;-61
2021/11/01 10:34:31;;;;;;;2.63;1.30;;;14.80;83.00;;;;;;5035511;28;20528;-60
2021/11/01 10:37:02;;;;;;;3.33;1.23;;;14.80;82.60;;;;;;5034568;28;20465;-58
2021/11/01 10:39:29;;;;;;;5.03;1.67;;;14.80;82.10;;;;;;5034527;28;20908;-60
2021/11/01 10:42:10;;;;;;;5.80;1.30;;;14.80;81.70;;;;;;5035284;28;20496;-60
2021/11/01 10:44:55;;;;;;;3.73;1.10;;;14.90;81.20;;;;;;5036006;28;20533;-60
2021/11/01 10:59:04;;;;;;;3.67;1.20;;;15.10;78.60;;;;;;5034175;28;20485;-59
2021/11/01 11:12:42;;;;;;;3.03;1.43;;;15.30;75.30;;;;;;5033636;28;20436;-60
2021/11/01 11:15:13;;;;;;;4.60;1.77;;;15.30;75.00;;;;;;5033397;28;20523;-59
2021/11/01 11:17:49;;;;;;;8.37;1.67;;;15.30;74.70;;;;;;5033000;28;20445;-60
2021/11/01 11:32:13;;;;;;;2.60;1.30;;;15.50;73.10;;;;;;5033624;28;20977;-59
2021/11/01 11:40:41;;;;;;;2.40;1.00;;;15.50;70.70;;;;;;5028104;28;20996;-60
2021/11/01 11:43:29;;;;;;;5.20;1.30;;;15.50;70.70;;;;;;5033072;28;20468;-60
2021/11/01 11:48:48;;;;;;;4.83;1.57;;;15.40;70.90;;;;;;5032924;28;20464;-57
2021/11/01 11:51:15;;;;;;;2.93;1.20;;;15.60;70.80;;;;;;5032789;28;20469;-59
2021/11/01 11:53:57;;;;;;;4.73;1.60;;;15.70;70.20;;;;;;5032885;28;20448;-60
2021/11/01 11:56:29;;;;;;;3.97;1.50;;;15.90;69.40;;;;;;5033074;28;20440;-60
2021/11/01 11:59:04;;;;;;;4.13;1.77;;;16.00;68.80;;;;;;5033146;28;20440;-60
2021/11/01 12:01:34;;;;;;;4.10;1.30;;;16.00;68.30;;;;;;5033107;28;20479;-60
2021/11/01 12:04:03;;;;;;;3.80;1.33;;;16.00;68.00;;;;;;5034556;28;20448;-60
2021/11/01 12:06:54;;;;;;;7.10;1.40;;;16.00;68.30;;;;;;5034151;28;20584;-60
2021/11/01 12:09:25;;;;;;;3.73;1.33;;;16.00;67.80;;;;;;5034482;28;20469;-58
2021/11/01 12:17:27;;;;;;;7.97;2.03;;;16.30;66.30;;;;;;5034118;28;20999;-59
2021/11/01 12:19:55;;;;;;;2.87;1.50;;;16.30;65.50;;;;;;5034314;28;20460;-61
2021/11/01 12:22:30;;;;;;;4.10;1.10;;;16.30;64.60;;;;;;5035987;28;20465;-60
2021/11/01 12:25:01;;;;;;;3.20;1.10;;;16.20;63.10;;;;;;5033829;28;20424;-61
2021/11/01 12:27:32;;;;;;;2.00;0.97;;;16.10;62.80;;;;;;5034044;28;20455;-60
2021/11/01 12:30:05;;;;;;;3.23;1.50;;;15.90;62.50;;;;;;5038115;28;20460;-61
2021/11/01 12:32:33;;;;;;;2.80;1.10;;;15.80;62.40;;;;;;5039427;28;20429;-60
2021/11/01 12:35:03;;;;;;;4.00;1.37;;;15.80;62.70;;;;;;5038269;28;20460;-60
2021/11/01 12:37:32;;;;;;;3.90;1.40;;;15.80;62.50;;;;;;5037785;28;20433;-61
2021/11/01 12:40:06;;;;;;;3.63;1.37;;;15.90;62.20;;;;;;5036814;28;20471;-60
2021/11/01 12:42:49;;;;;;;3.67;1.20;;;16.00;61.80;;;;;;5036269;28;20819;-59
2021/11/01 12:48:42;;;;;;;2.87;1.27;;;16.20;61.00;;;;;;5036306;28;20478;-61
2021/11/01 12:57:05;;;;;;;7.63;1.93;;;16.50;59.20;;;;;;5037051;28;20443;-60
2021/11/01 12:59:40;;;;;;;3.00;1.20;;;16.60;58.80;;;;;;5038021;28;20520;-60
2021/11/01 13:02:13;;;;;;;3.73;1.60;;;16.70;58.60;;;;;;5036560;28;20456;-61
2021/11/01 13:04:40;;;;;;;2.87;0.83;;;16.80;58.60;;;;;;5036753;28;20487;-60
2021/11/01 13:09:56;;;;;;;4.60;1.07;;;16.90;58.40;;;;;;5034918;28;20494;-61
2021/11/01 13:12:37;;;;;;;6.70;1.30;;;16.80;58.00;;;;;;5035934;28;20451;-60
2021/11/01 13:18:17;;;;;;;3.63;1.10;;;16.90;58.10;;;;;;5035346;28;20432;-58
2021/11/01 13:20:48;;;;;;;3.00;1.50;;;16.70;57.90;;;;;;5036137;28;20480;-60
2021/11/01 13:23:15;;;;;;;3.50;1.57;;;16.70;58.20;;;;;;5035810;28;20429;-61
2021/11/01 13:28:43;;;;;;;3.93;1.90;;;16.70;58.10;;;;;;5034652;28;20472;-60
2021/11/01 13:37:09;;;;;;;4.53;1.00;;;16.60;58.00;;;;;;5035154;28;20408;-60
2021/11/01 13:39:36;;;;;;;4.77;1.20;;;16.70;58.20;;;;;;5034417;28;20437;-61
2021/11/01 13:42:10;;;;;;;5.20;1.73;;;16.60;57.90;;;;;;5034792;28;20480;-59
2021/11/01 13:44:37;;;;;;;5.23;1.50;;;16.60;57.90;;;;;;5035215;28;20436;-60
2021/11/01 13:47:06;;;;;;;3.80;1.30;;;16.70;57.80;;;;;;5035468;28;20452;-61
2021/11/01 13:49:37;;;;;;;8.23;3.97;;;16.70;57.40;;;;;;5035934;28;20563;-60
2021/11/01 13:52:21;;;;;;;5.40;2.33;;;16.70;57.40;;;;;;5035405;28;20473;-62
2021/11/01 13:54:56;;;;;;;4.00;1.60;;;16.70;57.50;;;;;;5035102;28;20433;-61
2021/11/01 13:57:24;;;;;;;4.00;1.70;;;16.70;57.70;;;;;;5035398;28;20443;-61
2021/11/01 13:59:57;;;;;;;3.30;1.00;;;16.70;57.80;;;;;;5035536;28;20543;-62
2021/11/01 14:02:49;;;;;;;2.60;1.30;;;16.60;58.30;;;;;;5035642;28;20437;-61
2021/11/01 14:13:51;;;;;;;3.17;1.00;;;16.00;60.00;;;;;;5022035;28;20488;-59
2021/11/01 14:16:26;;;;;;;4.63;1.30;;;15.80;60.40;;;;;;5035007;28;20499;-60
2021/11/01 14:19:01;;;;;;;3.07;1.10;;;15.70;61.00;;;;;;5034735;28;20807;-59
2021/11/01 14:30:22;;;;;;;7.67;2.00;;;15.40;63.20;;;;;;5034486;28;20480;-57
2021/11/01 14:33:17;;;;;;;7.43;1.63;;;15.30;63.60;;;;;;5034991;28;20470;-59
2021/11/01 15:01:24;;;;;;;4.03;1.50;;;14.90;64.60;;;;;;5090670;28;20460;-60
2021/11/01 15:15:10;;;;;;;4.07;1.70;;;15.00;62.70;;;;;;5070857;28;20449;-60
2021/11/01 15:20:36;;;;;;;1.30;1.00;;;14.90;61.70;;;;;;5086303;28;20976;-60
2021/11/01 15:23:14;;;;;;;2.80;1.27;;;14.80;61.40;;;;;;5089881;28;20442;-61
2021/11/01 15:34:42;;;;;;;1.70;1.20;;;14.40;61.30;;;;;;5089526;28;20437;-60
2021/11/01 15:37:26;;;;;;;2.63;1.20;;;14.30;61.40;;;;;;5089532;28;20481;-58
2021/11/01 16:18:52;;;;;;;27.77;18.47;;;13.50;67.00;;;;;;5075807;28;20875;-59
2021/11/01 16:21:21;;;;;;;25.70;16.03;;;13.40;67.90;;;;;;5097490;22;20485;-57
2021/11/01 16:23:48;;;;;;;22.50;15.07;;;13.40;68.70;;;;;;5035069;28;20902;-56
2021/11/01 16:26:23;;;;;;;36.27;22.40;;;13.40;69.50;;;;;;5035022;28;20448;-57
2021/11/01 16:28:55;;;;;;;22.03;14.07;;;13.40;70.40;;;;;;5035337;28;20421;-57
2021/11/01 16:31:30;;;;;;;16.80;9.90;;;13.30;71.30;;;;;;5035296;28;20476;-57
2021/11/01 16:34:05;;;;;;;8.67;5.50;;;13.30;72.40;;;;;;5035138;28;20491;-57
2021/11/01 16:39:37;;;;;;;3.93;2.30;;;13.20;74.50;;;;;;5034735;28;20499;-57
2021/11/01 16:42:05;;;;;;;6.50;2.60;;;13.10;75.70;;;;;;5034634;28;20555;-56
2021/11/01 16:44:33;;;;;;;7.13;2.97;;;13.00;76.90;;;;;;5034890;28;20453;-57
2021/11/01 16:47:00;;;;;;;10.37;3.97;;;;;;;;;;5034745;28;20444;-56
2021/11/01 16:49:30;;;;;;;7.40;2.60;;;;;;;;;;5035002;28;20468;-56
2021/11/01 16:52:02;;;;;;;14.33;5.27;;;;;;;;;;5035106;28;20460;-56
2021/11/01 16:54:31;;;;;;;22.63;13.60;;;;;;;;;;5035041;28;20839;-56
2021/11/01 16:57:07;;;;;;;29.10;18.70;;;;;;;;;;5034619;28;20558;-55
2021/11/01 16:59:45;;;;;;;11.90;6.20;;;;;;;;;;5035023;28;20487;-59
2021/11/01 17:05:03;;;;;;;5.57;2.37;;;;;;;;;;5030748;28;20423;-56
2021/11/01 17:07:41;;;;;;;2.43;2.10;;;;;;;;;;5034523;28;20483;-56
2021/11/01 17:10:32;;;;;;;6.20;2.43;;;;;;;;;;5034931;28;20790;-54
2021/11/01 17:24:11;;;;;;;5.30;1.90;;;;;;;;;;5024966;28;20892;-56
2021/11/01 17:26:49;;;;;;;4.37;2.03;;;;;;;;;;5034046;28;20959;-56
2021/11/01 17:29:30;;;;;;;6.73;1.97;;;;;;;;;;5033841;28;20472;-56
2021/11/01 17:34:59;;;;;;;6.23;1.90;;;;;;;;;;5034077;28;20413;-56
2021/11/01 17:37:33;;;;;;;7.80;2.10;;;;;;;;;;5034779;28;20469;-57
2021/11/01 18:38:26;;;;;;;9.65;2.22;;;;;;;;;;5033326;28;20495;-56
2021/11/01 18:41:04;;;;;;;5.83;2.93;;;;;;;;;;5033116;28;20187;-55
2021/11/01 18:51:56;;;;;;;6.47;2.65;;;;;;;;;;5032844;28;20467;-56
2021/11/01 18:54:27;;;;;;;7.13;3.00;;;;;;;;;;5033709;28;20209;-56
2021/11/01 18:56:57;;;;;;;5.50;2.75;;;;;;;;;;5033177;28;20469;-56
2021/11/01 18:59:26;;;;;;;5.10;2.40;;;;;;;;;;5033298;28;20685;-56
2021/11/01 19:02:08;;;;;;;2.65;2.10;;;;;;;;;;5033450;28;20637;-56
2021/11/01 19:04:41;;;;;;;5.43;2.55;;;;;;;;;;5033526;28;20202;-56
2021/11/01 19:07:11;;;;;;;4.57;2.22;;;;;;;;;;5033494;28;20182;-56
2021/11/01 19:09:54;;;;;;;5.60;2.97;;;;;;;;;;5033188;28;20225;-55
2021/11/01 20:05:24;;;;;;;6.57;4.30;;;;;;;;;;5036631;28;20182;-55
2021/11/01 20:08:21;;;;;;;5.53;3.53;;;;;;;;;;5036002;28;20183;-55
2021/11/01 20:13:45;;;;;;;3.33;2.90;;;;;;;;;;5034717;28;20202;-55
2021/11/01 20:16:34;;;;;;;12.18;4.07;;;;;;;;;;5036103;28;20289;-56
2021/11/01 21:26:06;;;;;;;8.18;3.30;;;;;;;;;;5034655;28;20232;-56
2021/11/01 21:28:34;;;;;;;5.15;3.05;;;;;;;;;;5034512;28;20297;-55
2021/11/01 21:31:03;;;;;;;5.25;3.35;;;;;;;;;;5034870;28;20222;-56
2021/11/01 21:33:33;;;;;;;3.63;3.20;;;;;;;;;;5034875;28;20202;-56
2021/11/01 21:36:05;;;;;;;8.82;3.33;;;;;;;;;;5035062;28;20190;-56
2021/11/01 21:38:32;;;;;;;7.00;3.15;;;;;;;;;;5034734;28;20209;-56
2021/11/01 21:40:59;;;;;;;5.30;3.17;;;;;;;;;;5034519;28;20229;-55
2021/11/01 21:43:27;;;;;;;5.95;3.55;;;;;;;;;;5034285;28;20209;-55
2021/11/01 21:45:55;;;;;;;7.40;3.13;;;;;;;;;;5034085;28;20674;-56
2021/11/01 21:48:24;;;;;;;6.80;3.00;;;;;;;;;;5034139;28;20202;-56
2021/11/01 21:50:52;;;;;;;4.65;2.75;;;;;;;;;;5034161;28;20628;-56
2021/11/01 21:53:21;;;;;;;5.00;3.10;;;;;;;;;;5034276;28;20198;-55
2021/11/01 21:55:49;;;;;;;5.90;3.28;;;;;;;;;;5034531;28;20228;-56
2021/11/01 21:58:29;;;;;;;7.65;3.35;;;;;;;;;;5034162;28;20313;-55
2021/11/01 22:18:01;;;;;;;6.50;4.25;;;;;;;;;;5033741;28;20586;-55
2021/11/01 22:20:32;;;;;;;4.75;3.22;;;;;;;;;;5033643;28;20186;-55
2021/11/01 22:23:03;;;;;;;6.30;3.53;;;;;;;;;;5093556;22;20235;-59
2021/11/01 22:25:37;;;;;;;6.72;3.92;;;;;;;;;;5094196;28;20615;-61
2021/11/01 22:33:39;;;;;;;4.50;3.03;;;;;;;;;;5073946;28;20180;-60
2021/11/01 22:39:07;;;;;;;6.20;3.65;;;;;;;;;;5073731;28;20211;-60
2021/11/01 22:41:45;;;;;;;9.63;3.55;;;;;;;;;;5073634;28;20243;-60
2021/11/01 22:57:52;;;;;;;5.65;3.78;;;;;;;;;;5073447;28;20676;-60
2021/11/01 23:00:23;;;;;;;5.78;4.22;;;;;;;;;;5073297;28;20254;-60
2021/11/01 23:02:58;;;;;;;6.20;2.90;;;;;;;;;;5073371;28;20260;-60
2021/11/01 23:05:39;;;;;;;6.75;3.20;;;;;;;;;;5073059;28;20189;-60
2021/11/01 23:33:10;;;;;;;7.65;3.40;;;;;;;;;;5051244;28;20240;-60
2021/11/01 23:35:37;;;;;;;7.38;3.50;;;;;;;;;;5076783;28;20668;-60